createdAt,value
2024-04-15T00:04:45.836Z,64.14
2024-04-15T00:09:48.553Z,64.61
2024-04-15T00:14:51.524Z,65.00
2024-04-15T00:19:54.459Z,65.14
2024-04-15T00:24:57.182Z,65.31
2024-04-15T00:29:59.857Z,65.65
2024-04-15T00:35:02.588Z,66.00
2024-04-15T00:40:06.360Z,66.07
2024-04-15T00:45:32.039Z,66.00
2024-04-15T00:50:41.589Z,66.61
2024-04-15T00:55:49.251Z,66.86
2024-04-15T01:00:54.930Z,66.82
2024-04-15T01:05:57.809Z,66.49
2024-04-15T01:11:01.456Z,67.14
2024-04-15T01:16:04.633Z,67.09
2024-04-15T01:21:09.019Z,66.76
2024-04-15T01:26:11.758Z,66.97
2024-04-15T01:31:14.744Z,66.85
2024-04-15T01:36:17.626Z,67.68
2024-04-15T01:41:20.344Z,67.95
2024-04-15T01:46:23.138Z,68.42
2024-04-15T01:51:28.296Z,69.15
2024-04-15T01:56:30.949Z,69.46
2024-04-15T02:01:36.981Z,69.47
2024-04-15T02:06:39.849Z,69.47
2024-04-15T02:11:42.692Z,69.61
2024-04-15T02:16:45.390Z,69.56
2024-04-15T02:21:48.182Z,69.54
2024-04-15T02:26:51.012Z,69.44
2024-04-15T02:31:53.932Z,69.46
2024-04-15T02:36:56.857Z,69.54
2024-04-15T02:41:59.610Z,69.58
2024-04-15T02:47:02.524Z,69.62
2024-04-15T02:52:05.433Z,69.72
2024-04-15T02:57:08.274Z,69.82
2024-04-15T03:02:11.026Z,69.88
2024-04-15T03:07:13.908Z,69.86
2024-04-15T03:12:17.410Z,69.72
2024-04-15T03:17:21.582Z,70.11
2024-04-15T03:22:24.566Z,70.42
2024-04-15T03:27:27.341Z,70.43
2024-04-15T03:32:32.826Z,70.46
2024-04-15T03:37:35.650Z,70.64
2024-04-15T03:42:38.747Z,70.65
2024-04-15T03:47:42.397Z,70.99
2024-04-15T03:52:45.257Z,71.18
2024-04-15T03:57:48.122Z,71.50
2024-04-15T04:02:53.740Z,71.75
2024-04-15T04:07:56.880Z,71.94
2024-04-15T04:13:00.001Z,71.82
2024-04-15T04:18:03.171Z,72.14
2024-04-15T04:23:06.084Z,72.49
2024-04-15T04:28:08.901Z,72.07
2024-04-15T04:33:11.691Z,72.15
2024-04-15T04:38:14.461Z,72.07
2024-04-15T04:43:17.222Z,72.14
2024-04-15T04:48:21.804Z,72.14
2024-04-15T04:53:24.538Z,72.08
2024-04-15T04:58:27.234Z,71.90
2024-04-15T05:03:30.120Z,72.11
2024-04-15T05:08:33.245Z,72.30
2024-04-15T05:13:36.154Z,72.04
2024-04-15T05:18:41.641Z,72.11
2024-04-15T05:23:45.118Z,72.01
2024-04-15T05:28:47.788Z,72.24
2024-04-15T05:33:50.656Z,72.41
2024-04-15T05:38:53.323Z,72.39
2024-04-15T05:43:56.079Z,72.29
2024-04-15T05:48:58.962Z,72.17
2024-04-15T05:54:01.676Z,71.92
2024-04-15T05:59:04.599Z,71.68
2024-04-15T06:04:09.087Z,71.48
2024-04-15T06:09:11.968Z,71.10
2024-04-15T06:14:14.662Z,70.60
2024-04-15T06:19:17.513Z,70.36
2024-04-15T06:24:20.297Z,70.14
2024-04-15T06:29:25.066Z,70.13
2024-04-15T06:34:30.441Z,69.71
2024-04-15T06:39:34.995Z,68.81
2024-04-15T06:44:45.088Z,67.82
2024-04-15T06:49:48.016Z,66.10
2024-04-15T06:54:50.841Z,63.35
2024-04-15T06:59:53.976Z,63.87
2024-04-15T07:04:56.727Z,62.22
2024-04-15T07:09:59.542Z,60.54
2024-04-15T07:15:02.404Z,59.90
2024-04-15T07:20:06.865Z,59.81
2024-04-15T07:25:09.618Z,57.80
2024-04-15T07:30:12.522Z,58.81
2024-04-15T07:35:15.458Z,57.76
2024-04-15T07:40:18.279Z,57.60
2024-04-15T07:45:21.226Z,57.28
2024-04-15T07:50:24.420Z,56.73
2024-04-15T07:55:27.273Z,56.35
2024-04-15T08:00:30.220Z,55.48
2024-04-15T08:05:32.926Z,52.94
2024-04-15T08:10:36.436Z,52.06
2024-04-15T08:15:40.356Z,51.68
2024-04-15T08:20:43.398Z,51.94
2024-04-15T08:25:56.871Z,52.68
2024-04-15T08:31:00.051Z,54.38
2024-04-15T08:36:09.964Z,54.69
2024-04-15T08:41:28.103Z,54.38
2024-04-15T08:46:42.361Z,55.01
2024-04-15T08:51:46.814Z,54.85
2024-04-15T08:56:54.458Z,54.88
2024-04-15T09:01:57.674Z,53.91
2024-04-15T09:07:13.394Z,54.13
2024-04-15T09:12:43.129Z,53.48
2024-04-15T09:17:46.670Z,52.26
2024-04-15T09:22:49.722Z,52.08
2024-04-15T09:27:56.698Z,49.43
2024-04-15T09:33:01.761Z,48.60
2024-04-15T09:38:08.984Z,50.18
2024-04-15T09:43:16.722Z,50.21
2024-04-15T09:48:24.675Z,50.65
2024-04-15T09:53:44.597Z,49.44
2024-04-15T09:58:57.241Z,46.74
2024-04-15T10:04:05.324Z,45.96
2024-04-15T10:09:09.967Z,46.14
2024-04-15T10:14:15.569Z,44.65
2024-04-15T10:19:35.822Z,43.93
2024-04-15T10:24:40.251Z,44.49
2024-04-15T10:29:43.852Z,46.84
2024-04-15T10:34:49.667Z,47.78
2024-04-15T10:39:52.604Z,47.45
2024-04-15T10:44:56.259Z,47.19
2024-04-15T10:50:00.398Z,48.51
2024-04-15T10:55:08.717Z,50.10
2024-04-15T11:00:17.586Z,50.24
2024-04-15T11:05:23.401Z,48.78
2024-04-15T11:10:26.557Z,47.44
2024-04-15T11:15:30.448Z,47.63
2024-04-15T11:20:33.497Z,47.63
2024-04-15T11:25:39.716Z,47.04
2024-04-15T11:30:42.798Z,45.71
2024-04-15T11:35:53.522Z,45.61
2024-04-15T11:40:58.756Z,45.60
2024-04-15T11:46:01.973Z,45.33
2024-04-15T11:51:09.353Z,44.44
2024-04-15T11:56:14.584Z,43.56
2024-04-15T12:01:17.709Z,41.28
2024-04-15T12:06:20.631Z,38.94
2024-04-15T12:11:25.381Z,37.65
2024-04-15T12:16:28.303Z,38.38
2024-04-15T12:21:34.157Z,37.81
2024-04-15T12:26:38.093Z,40.78
2024-04-15T12:31:41.265Z,41.91
2024-04-15T12:36:47.665Z,43.03
2024-04-15T12:41:54.903Z,43.97
2024-04-15T12:47:00.571Z,43.74
2024-04-15T12:52:08.278Z,43.51
2024-04-15T12:57:17.523Z,42.56
2024-04-15T13:02:21.818Z,42.36
2024-04-15T13:07:28.300Z,42.26
2024-04-15T13:12:33.069Z,42.20
2024-04-15T13:17:35.930Z,42.35
2024-04-15T13:22:39.287Z,42.49
2024-04-15T13:27:48.871Z,43.11
2024-04-15T13:32:51.928Z,43.90
2024-04-15T13:37:57.742Z,44.08
2024-04-15T13:43:03.372Z,44.14
2024-04-15T13:48:09.999Z,44.35
2024-04-15T13:53:22.013Z,44.37
2024-04-15T13:58:25.526Z,44.42
2024-04-15T14:03:28.714Z,44.40
2024-04-15T14:08:31.984Z,44.48
2024-04-15T14:13:36.568Z,44.69
2024-04-15T14:18:47.128Z,44.84
2024-04-15T14:23:51.147Z,44.79
2024-04-15T14:28:58.564Z,44.74
2024-04-15T14:34:02.183Z,44.49
2024-04-15T14:39:06.793Z,44.47
2024-04-15T14:44:10.893Z,44.72
2024-04-15T14:49:24.566Z,44.31
2024-04-15T14:54:32.938Z,44.62
2024-04-15T14:59:50.037Z,44.97
2024-04-15T15:04:58.023Z,45.23
2024-04-15T15:10:02.761Z,45.34
2024-04-15T15:15:09.807Z,45.58
2024-04-15T15:20:12.798Z,45.71
2024-04-15T15:25:16.329Z,45.40
2024-04-15T15:30:22.345Z,45.26
2024-04-15T15:35:25.276Z,45.69
2024-04-15T15:40:32.245Z,45.55
2024-04-15T15:45:40.431Z,45.68
2024-04-15T15:50:44.511Z,45.78
2024-04-15T15:55:50.131Z,45.83
2024-04-15T16:00:54.125Z,45.96
2024-04-15T16:05:59.565Z,46.17
2024-04-15T16:11:03.030Z,46.06
2024-04-15T16:16:06.433Z,46.31
2024-04-15T16:21:09.246Z,45.65
2024-04-15T16:26:16.268Z,45.76
2024-04-15T16:31:23.347Z,45.89
2024-04-15T16:36:28.734Z,45.81
2024-04-15T16:41:44.835Z,45.94
2024-04-15T16:46:54.175Z,45.96
2024-04-15T16:51:58.083Z,46.05
2024-04-15T16:57:06.094Z,46.08
2024-04-15T17:02:24.172Z,47.24
2024-04-15T17:07:28.665Z,48.40
2024-04-15T17:12:31.832Z,48.97
2024-04-15T17:17:36.149Z,49.04
2024-04-15T17:22:38.960Z,48.93
2024-04-15T17:27:43.059Z,48.68
2024-04-15T17:32:45.947Z,48.51
2024-04-15T17:37:50.492Z,48.49
2024-04-15T17:42:55.895Z,48.53
2024-04-15T17:47:59.015Z,48.87
2024-04-15T17:53:01.861Z,48.98
2024-04-15T17:58:05.017Z,49.43
2024-04-15T18:03:07.909Z,50.78
2024-04-15T18:08:10.828Z,53.49
2024-04-15T18:13:13.847Z,57.37
2024-04-15T18:18:17.112Z,58.76
2024-04-15T18:23:19.846Z,57.79
2024-04-15T18:28:22.699Z,58.41
2024-04-15T18:33:25.604Z,59.85
2024-04-15T18:38:28.322Z,61.00
2024-04-15T18:43:31.471Z,62.19
2024-04-15T18:48:35.294Z,62.57
2024-04-15T18:53:38.173Z,63.13
2024-04-15T18:58:41.061Z,64.97
2024-04-15T19:03:44.609Z,65.93
2024-04-15T19:08:47.486Z,64.27
2024-04-15T19:13:50.161Z,62.69
2024-04-15T19:18:53.269Z,61.94
2024-04-15T19:23:56.604Z,61.81
2024-04-15T19:28:59.385Z,61.65
2024-04-15T19:34:02.581Z,61.51
2024-04-15T19:39:12.779Z,62.04
2024-04-15T19:44:15.540Z,62.96
2024-04-15T19:49:18.366Z,63.13
2024-04-15T19:54:21.454Z,63.16
2024-04-15T19:59:24.304Z,64.64
2024-04-15T20:04:27.282Z,65.80
2024-04-15T20:09:33.238Z,66.54
2024-04-15T20:14:35.958Z,66.18
2024-04-15T20:19:46.926Z,66.33
2024-04-15T20:24:49.717Z,66.07
2024-04-15T20:29:52.525Z,66.41
2024-04-15T20:34:58.789Z,66.04
2024-04-15T20:40:01.682Z,64.96
2024-04-15T20:45:05.594Z,64.81
2024-04-15T20:50:08.295Z,65.13
2024-04-15T20:55:11.027Z,65.77
2024-04-15T21:00:13.902Z,65.65
2024-04-15T21:05:17.361Z,65.55
2024-04-15T21:10:20.207Z,65.55
2024-04-15T21:15:23.000Z,65.08
2024-04-15T21:20:25.609Z,65.40
2024-04-15T21:25:28.495Z,65.86
2024-04-15T21:30:31.355Z,65.75
2024-04-15T21:35:34.188Z,65.63
2024-04-15T21:40:37.232Z,65.44
2024-04-15T21:45:40.045Z,65.42
2024-04-15T21:50:43.253Z,65.61
2024-04-15T21:55:46.576Z,65.53
2024-04-15T22:00:49.487Z,65.57
2024-04-15T22:05:52.304Z,66.04
2024-04-15T22:10:55.060Z,66.61
2024-04-15T22:15:57.983Z,67.04
2024-04-15T22:21:00.852Z,66.67
2024-04-15T22:26:03.921Z,66.47
2024-04-15T22:31:06.920Z,66.53
2024-04-15T22:36:09.786Z,66.35
2024-04-15T22:41:12.520Z,66.14
2024-04-15T22:46:15.257Z,65.82
2024-04-15T22:51:18.168Z,65.67
2024-04-15T22:56:20.978Z,65.53
2024-04-15T23:01:25.382Z,65.64
2024-04-15T23:06:28.796Z,66.31
2024-04-15T23:11:31.591Z,67.01
2024-04-15T23:16:34.371Z,66.90
2024-04-15T23:21:37.496Z,66.67
2024-04-15T23:26:40.216Z,67.18
2024-04-15T23:31:46.435Z,67.75
2024-04-15T23:36:49.126Z,67.90
2024-04-15T23:41:51.949Z,68.17
2024-04-15T23:46:54.738Z,68.49
2024-04-15T23:51:57.715Z,68.42
2024-04-15T23:57:00.824Z,69.25
